Little Rock, AR

08:41 CDT le 01 septembre 2014 (GMT -0500)
Heights | Change Station
CLOSE
Current Station
Stations météorologiques personnelles
Location: Little Rock, AR
Altitude: 581 ft
Stations météo à proximité

Alt. 581 ft 34.77 °N, 92.33 °W | Updated 4 seconds ago

Overcast
Couvert
76.5 ° F
Paraît 77 ° F
N
0.0
Vent Variable Vent de Nord
Gusts 0.0 mph

Aujourd'hui
Haut(e) -- | Bas -- ° F
--% Risque de précip.
Hier
Haut(e) -- | Bas -- ° F
Precip. -- pouce
6:42 AM 7:35 PM
Lune montante, 41% visible
Pression 30.02 pouce
Visibilité 10.0 Miles terrestres
Nuages Couvert 1000 ft
indice de chaleur 77 ° F
Point de rosée 72 ° F
Humidité 85%
Précipitations 0.00 pouce
Profondeur de la couche neigeuse Non disponible.
UV 0 sur 12
Pollen 10.70 sur 12
Ozone Bon
PM2.5 Moyen
Flu Activity Non disponible.
METAR KLIT 011253Z 22006KT 10SM OVC010 25/22 A3002 RMK AO2 SLP166 T02500217

More Conditions Fewer Conditions

Pression 30.02 pouce
Visibilité 10.0 Miles terrestres
Nuages Couvert 1000 ft
indice de chaleur 77 ° F
Point de rosée 72 ° F
Humidité 85%
Précipitations 0.00 pouce
Profondeur de la couche neigeuse Non disponible.
UV 0 sur 12
Pollen 10.70 sur 12
Ozone Bon
PM2.5 Moyen
Flu Activity Non disponible.
METAR KLIT 011253Z 22006KT 10SM OVC010 25/22 A3002 RMK AO2 SLP166 T02500217

More Conditions Fewer Conditions

10-Day Weather Forecast

Almanac

Astronomie

Sep. 01, 2014 Lever Coucher
Temps réel 06:42 CDT 19:35 CDT
Crépuscule civil 06:16 CDT 20:01 CDT
Crépuscule nautique 05:45 CDT 20:31 CDT
Crépuscule astronomique 05:14 CDT 21:02 CDT
Lune 13:11 CDT 23:53 CDT
Durée de lumière visible 13h 44m
Longueur du jour
12h 53m
Tomorrow will be 2m 4s shorter.
Lune montante, 41% of the Moon is Illuminated
Aujourd'hui
Lune montante
Sep 2
Premier quartier
Sep 8
Pleine lune
Sep 15
Dernier quartier
Sep 24
Nouveau

Extrêmes aujourd'hui

State Highs State Lows

Community

WunderPhotos

Upload Photos

1,749,222 Photos téléchargées !

Nearby

Qualité de l'air

  Qualité de l'air Indice de la qualité de l'air Polluant
Hier Bon
PM2.5
Hier Bon
OZONE
Actuel Moyen
PM2.5
Actuel Bon
OZONE
lundi Bon
OZONE

Épaisseur de neige

Station Depth Altitude
Pas de nouvelles chutes de neige

Activité sismique

Ville Distance Mag. Time & Date
No recent earthquake activity has been reported nearby.
Minimum magnitude displayed is 2.5.

Températures des eaux côtières

Lieu Température
Aucun rapport de station

Stations météo à proximité